Time;durP1;ratioP1;P1;durP2;ratioP2;P2;SDS_P1;SDS_P2;PMS_P1;PMS_P2;Temp;Humidity;BMP_temperature;BMP_pressure;BME280_temperature;BME280_humidity;BME280_pressure;Samples;Min_cycle;Max_cycle;Signal;HPM_P1;HPM_P2
2021/12/14 00:00:58;;;;;;;22.92;19.40;;;;;;;8.46;100.00;102461.47;5096280;28;20037;-56
2021/12/14 00:03:28;;;;;;;21.70;19.23;;;;;;;8.19;100.00;102435.16;5096223;28;20119;-56
2021/12/14 00:05:54;;;;;;;22.20;19.65;;;;;;;8.59;100.00;102504.38;5096107;28;20055;-56
2021/12/14 00:08:20;;;;;;;23.95;18.80;;;;;;;8.19;100.00;102445.66;5077729;28;20403;-55
2021/12/14 00:13:45;;;;;;;22.80;19.48;;;;;;;8.56;100.00;102511.34;5095469;28;20036;-56
2021/12/14 00:16:12;;;;;;;21.52;19.20;;;;;;;8.58;100.00;102534.09;5096224;28;20039;-54
2021/12/14 00:18:39;;;;;;;22.23;19.85;;;;;;;8.54;100.00;102521.00;5077504;28;20499;-57
2021/12/14 00:21:19;;;;;;;23.48;20.10;;;;;;;8.54;100.00;102515.75;5095707;28;20054;-56
2021/12/14 00:26:30;;;;;;;21.42;19.23;;;;;;;8.49;100.00;102492.97;5096132;28;20090;-55
2021/12/14 00:28:56;;;;;;;21.25;19.05;;;;;;;8.56;100.00;102525.38;5095522;28;20036;-54
2021/12/14 00:31:22;;;;;;;21.38;19.13;;;;;;;8.27;100.00;102461.41;5077512;28;20130;-52
2021/12/14 00:33:51;;;;;;;24.30;21.08;;;;;;;8.18;100.00;102454.38;5095620;28;20067;-54
2021/12/14 00:36:18;;;;;;;24.33;21.73;;;;;;;8.54;100.00;102513.13;5095655;28;20036;-59
2021/12/14 00:38:44;;;;;;;25.92;22.17;;;;;;;8.19;100.00;102450.00;5095469;28;20044;-57
2021/12/14 00:41:13;;;;;;;25.33;22.42;;;;;;;8.10;100.00;102429.00;5095357;28;20514;-57
2021/12/14 00:43:38;;;;;;;25.38;22.80;;;;;;;8.14;100.00;102422.91;5095286;28;20089;-53
2021/12/14 00:46:04;;;;;;;27.40;23.63;;;;;;;8.53;100.00;102487.72;5077318;28;20035;-56
2021/12/14 00:48:30;;;;;;;26.80;23.95;;;;;;;8.54;100.00;102481.63;5077411;28;20020;-58
2021/12/14 00:50:57;;;;;;;27.58;24.35;;;;;;;8.54;100.00;102493.00;5095249;28;20043;-57
2021/12/14 00:53:23;;;;;;;27.73;24.77;;;;;;;8.43;100.00;102469.34;5095317;28;20479;-52
2021/12/14 00:55:50;;;;;;;27.95;24.95;;;;;;;8.12;100.00;102424.63;5095063;28;20040;-52
2021/12/14 00:58:18;;;;;;;28.63;25.60;;;;;;;8.51;100.00;102481.63;5095081;28;20048;-55
2021/12/14 01:00:47;;;;;;;29.27;26.08;;;;;;;8.44;100.00;102475.47;5095176;28;20035;-55
2021/12/14 01:03:13;;;;;;;31.70;28.33;;;;;;;8.44;100.00;102463.22;5095303;28;20490;-55
2021/12/14 01:05:42;;;;;;;30.40;27.23;;;;;;;8.15;100.00;102396.66;5094949;28;20482;-59
2021/12/14 01:08:11;;;;;;;33.65;29.02;;;;;;;8.06;100.00;102399.25;5094422;28;20107;-56
2021/12/14 01:10:52;;;;;;;33.45;29.73;;;;;;;8.42;100.00;102456.22;5094854;28;20449;-60
2021/12/14 01:13:20;;;;;;;;;;;;;;;8.44;100.00;102450.09;5094937;28;20024;-55
2021/12/14 01:16:34;;;;;;;33.03;29.15;;;;;;;8.43;100.00;102450.97;5094955;28;19958;-55
2021/12/14 01:24:06;;;;;;;31.10;27.75;;;;;;;8.24;100.00;102403.69;5091288;28;20032;-56
2021/12/14 01:26:35;;;;;;;31.30;27.90;;;;;;;7.99;100.00;102368.66;5076534;28;20024;-54
2021/12/14 01:29:03;;;;;;;32.03;28.65;;;;;;;8.35;100.00;102428.22;5094518;28;20028;-53
2021/12/14 01:31:35;;;;;;;31.55;28.23;;;;;;;8.15;100.00;102398.41;5094594;28;20074;-58
2021/12/14 01:34:04;;;;;;;32.30;28.23;;;;;;;8.10;100.00;102384.41;5094687;28;20032;-55
2021/12/14 01:41:46;;;;;;;30.95;27.77;;;;;;;8.44;100.00;102468.47;5094333;28;20047;-54
2021/12/14 01:44:12;;;;;;;31.70;28.30;;;;;;;8.44;100.00;102467.59;5094208;28;20028;-56
2021/12/14 01:46:48;;;;;;;31.77;28.45;;;;;;;8.42;100.00;102449.25;5076243;28;20046;-54
2021/12/14 01:49:15;;;;;;;32.47;28.98;;;;;;;8.09;100.00;102401.00;5076128;28;20036;-55
2021/12/14 01:51:45;;;;;;;33.08;29.45;;;;;;;8.45;100.00;102449.25;5094253;28;20036;-57
2021/12/14 01:54:13;;;;;;;33.97;30.38;;;;;;;8.16;100.00;102411.53;5076269;28;20028;-50
2021/12/14 01:56:38;;;;;;;30.75;27.55;;;;;;;8.20;100.00;102422.91;5075642;28;20077;-52
2021/12/14 01:59:14;;;;;;;34.35;30.65;;;;;;;8.38;100.00;102450.09;5093942;28;20032;-55
2021/12/14 02:01:56;;;;;;;32.85;29.50;;;;;;;8.39;100.00;102449.22;5093882;28;20066;-55
2021/12/14 02:04:25;;;;;;;32.45;29.02;;;;;;;8.30;100.00;102443.06;5093843;28;20523;-55
2021/12/14 02:06:57;;;;;;;32.55;29.17;;;;;;;8.41;100.00;102463.22;5093523;28;20081;-59
2021/12/14 02:09:25;;;;;;;33.15;29.73;;;;;;;8.02;100.00;102392.28;5093962;28;20028;-52
2021/12/14 02:11:53;;;;;;;32.10;28.77;;;;;;;8.34;100.00;102466.72;5093371;28;20125;-56
2021/12/14 02:14:20;;;;;;;33.05;29.65;;;;;;;8.37;100.00;102455.34;5075492;28;20487;-51
2021/12/14 02:16:48;;;;;;;33.92;30.48;;;;;;;8.03;100.00;102399.25;5093766;28;20532;-51
2021/12/14 02:19:15;;;;;;;32.20;28.90;;;;;;;8.37;100.00;102463.22;5093061;28;20078;-55
2021/12/14 02:21:43;;;;;;;32.53;29.13;;;;;;;8.37;100.00;102456.22;5057702;28;20028;-53
2021/12/14 02:24:10;;;;;;;33.65;30.10;;;;;;;8.06;100.00;102399.25;5093734;28;20047;-51
2021/12/14 02:26:37;;;;;;;33.08;29.58;;;;;;;8.36;100.00;102457.09;5075627;28;20438;-53
2021/12/14 02:29:07;;;;;;;32.20;28.75;;;;;;;8.36;100.00;102454.47;5093340;28;20499;-55
2021/12/14 02:31:36;;;;;;;32.53;29.20;;;;;;;8.41;100.00;102459.72;5093127;28;20051;-51
2021/12/14 02:34:02;;;;;;;33.60;30.10;;;;;;;8.38;100.00;102459.72;5093006;28;20032;-53
2021/12/14 02:36:34;;;;;;;32.45;28.92;;;;;;;8.06;100.00;102401.88;5092876;28;20533;-53
2021/12/14 02:39:07;;;;;;;34.00;29.75;;;;;;;8.24;100.00;102436.03;5075017;28;20184;-53
2021/12/14 02:41:45;;;;;;;34.17;30.55;;;;;;;8.26;100.00;102430.81;5075941;28;20032;-58
2021/12/14 02:44:12;;;;;;;33.85;30.27;;;;;;;7.91;100.00;102381.75;5092969;28;20032;-52
2021/12/14 02:46:40;;;;;;;34.50;30.90;;;;;;;8.28;100.00;102448.34;5092974;28;20501;-52
2021/12/14 02:49:08;;;;;;;34.15;30.67;;;;;;;8.26;100.00;102430.81;5092944;28;20454;-52
2021/12/14 02:51:36;;;;;;;32.70;29.23;;;;;;;7.92;100.00;102364.25;5093066;28;20035;-56
2021/12/14 02:54:12;;;;;;;33.58;30.08;;;;;;;7.94;100.00;102371.25;5074749;28;20036;-58
2021/12/14 02:56:39;;;;;;;35.60;31.33;;;;;;;7.99;100.00;102375.66;5092950;28;21109;-56
2021/12/14 02:59:10;;;;;;;33.45;30.10;;;;;;;8.29;100.00;102430.84;5093503;28;20131;-52
2021/12/14 03:01:37;;;;;;;34.50;30.90;;;;;;;8.28;100.00;102424.72;5092421;28;20420;-56
2021/12/14 03:04:05;;;;;;;34.17;30.52;;;;;;;8.29;100.00;102430.84;5092771;28;20040;-51
2021/12/14 03:06:34;;;;;;;34.97;29.48;;;;;;;7.88;100.00;102368.63;5092580;28;20039;-55
2021/12/14 03:09:19;;;;;;;33.25;29.75;;;;;;;8.26;100.00;102441.31;5074534;28;20115;-57
2021/12/14 03:11:44;;;;;;;31.23;28.05;;;;;;;8.24;100.00;102446.53;5092974;28;20040;-53
2021/12/14 03:14:10;;;;;;;33.90;30.23;;;;;;;7.82;100.00;102376.47;5092570;28;20031;-53
2021/12/14 03:16:38;;;;;;;34.47;30.88;;;;;;;8.22;100.00;102439.53;5074189;28;20078;-55
2021/12/14 03:19:06;;;;;;;34.35;30.65;;;;;;;8.18;100.00;102436.03;5092485;28;20127;-57
2021/12/14 03:21:36;;;;;;;33.38;29.83;;;;;;;8.24;100.00;102443.91;5092656;28;20032;-54
2021/12/14 03:24:06;;;;;;;34.97;31.25;;;;;;;7.80;100.00;102377.34;5074251;28;20103;-52
2021/12/14 03:26:33;;;;;;;33.45;29.85;;;;;;;8.20;100.00;102442.13;5092401;28;20027;-54
2021/12/14 03:29:03;;;;;;;32.67;29.17;;;;;;;8.21;100.00;102445.63;5074490;28;20028;-54
2021/12/14 03:31:44;;;;;;;35.35;30.23;;;;;;;8.21;100.00;102437.78;5092405;28;20469;-55
2021/12/14 03:34:14;;;;;;;34.45;30.40;;;;;;;7.78;100.00;102373.84;5092283;28;20031;-54
2021/12/14 03:36:44;;;;;;;32.00;28.58;;;;;;;8.18;100.00;102459.63;5074335;28;20416;-57
2021/12/14 03:39:16;;;;;;;33.38;29.65;;;;;;;8.16;100.00;102453.50;5092332;28;20138;-57
2021/12/14 03:41:46;;;;;;;34.75;29.98;;;;;;;8.15;100.00;102445.63;5092334;28;20035;-55
2021/12/14 03:44:11;;;;;;;30.98;27.65;;;;;;;7.51;100.00;102334.41;5092318;28;20028;-57
2021/12/14 03:46:43;;;;;;;30.08;26.63;;;;;;;8.22;100.00;102448.28;5092503;28;20538;-61
2021/12/14 03:49:09;;;;;;;32.72;27.88;;;;;;;7.75;100.00;102377.34;5092809;28;20057;-55
2021/12/14 03:51:35;;;;;;;34.63;28.75;;;;;;;8.15;100.00;102448.25;5074262;28;20082;-52
2021/12/14 03:54:00;;;;;;;32.72;28.58;;;;;;;8.19;100.00;102464.00;5073990;28;20032;-55
2021/12/14 03:56:27;;;;;;;31.40;28.13;;;;;;;8.20;100.00;102459.66;5092095;28;20106;-55
2021/12/14 03:58:52;;;;;;;32.05;28.27;;;;;;;7.97;100.00;102421.97;5091815;28;20082;-54
2021/12/14 04:01:22;;;;;;;32.40;28.23;;;;;;;8.19;100.00;102452.63;5091708;28;20056;-54
2021/12/14 04:03:52;;;;;;;32.20;28.75;;;;;;;7.85;100.00;102396.59;5074359;28;20456;-50
2021/12/14 04:06:18;;;;;;;30.20;26.92;;;;;;;7.79;100.00;102381.69;5073991;28;20035;-58
2021/12/14 04:08:44;;;;;;;30.42;27.15;;;;;;;7.67;100.00;102365.94;5092151;28;20067;-54
2021/12/14 04:11:11;;;;;;;30.52;27.08;;;;;;;8.14;100.00;102447.41;5057302;28;20046;-56
2021/12/14 04:13:47;;;;;;;30.23;27.02;;;;;;;8.13;100.00;102445.63;5073888;28;20028;-55
2021/12/14 04:16:16;;;;;;;29.45;26.35;;;;;;;8.14;100.00;102462.25;5091885;28;20459;-57
2021/12/14 04:18:41;;;;;;;29.90;26.42;;;;;;;8.17;100.00;102478.84;5092062;28;20176;-58
2021/12/14 04:21:07;;;;;;;29.48;26.25;;;;;;;7.84;100.00;102411.44;5091947;28;20052;-51
2021/12/14 04:23:36;;;;;;;30.67;26.17;;;;;;;8.11;100.00;102459.63;5074019;28;20638;-53
2021/12/14 04:26:04;;;;;;;30.33;25.65;;;;;;;8.06;100.00;102453.44;5073852;28;20032;-55
2021/12/14 04:28:33;;;;;;;30.60;24.77;;;;;;;7.74;100.00;102393.91;5073939;28;20089;-52
2021/12/14 04:30:59;;;;;;;30.17;25.65;;;;;;;8.05;100.00;102449.97;5091944;28;20467;-57
2021/12/14 04:33:30;;;;;;;29.42;25.17;;;;;;;7.73;100.00;102396.56;5091969;28;20050;-57
2021/12/14 04:35:56;;;;;;;29.88;25.15;;;;;;;8.10;100.00;102455.22;5091774;28;20039;-59
2021/12/14 04:38:27;;;;;;;28.13;25.23;;;;;;;8.10;100.00;102453.47;5091856;28;20056;-58
2021/12/14 04:52:04;;;;;;;28.00;23.70;;;;;;;8.13;100.00;102429.00;5095583;28;20196;-55
2021/12/14 04:54:39;;;;;;;27.08;24.17;;;;;;;8.12;100.00;102433.38;5095475;28;20032;-56
2021/12/14 04:57:17;;;;;;;24.35;21.77;;;;;;;8.15;100.00;102445.63;5095185;28;20154;-54
2021/12/14 04:59:42;;;;;;;25.05;22.02;;;;;;;8.14;100.00;102430.78;5095021;28;20287;-57
2021/12/14 05:02:15;;;;;;;26.25;23.48;;;;;;;7.93;100.00;102403.63;5095251;28;20031;-53
2021/12/14 05:04:44;;;;;;;26.27;23.38;;;;;;;8.13;100.00;102445.63;5095162;28;20058;-57
2021/12/14 05:09:54;;;;;;;26.85;21.98;;;;;;;7.71;100.00;102367.69;5094913;28;20043;-52
2021/12/14 05:12:24;;;;;;;26.13;23.33;;;;;;;8.07;100.00;102431.63;5094749;28;20035;-48
2021/12/14 05:14:50;;;;;;;25.75;22.92;;;;;;;7.71;100.00;102372.94;5076543;28;20063;-53
2021/12/14 05:17:19;;;;;;;27.30;22.70;;;;;;;7.60;100.00;102345.81;5076960;28;20024;-57
2021/12/14 05:19:46;;;;;;;25.48;22.77;;;;;;;7.76;100.00;102376.44;5094815;28;20390;-53
2021/12/14 05:22:18;;;;;;;24.48;21.88;;;;;;;8.08;100.00;102429.00;5094982;28;20036;-52
2021/12/14 05:24:48;;;;;;;28.98;22.58;;;;;;;7.70;100.00;102370.31;5076370;28;20028;-55
2021/12/14 05:27:25;;;;;;;26.40;22.80;;;;;;;8.09;100.00;102432.47;5094559;28;20059;-57
2021/12/14 05:29:50;;;;;;;26.10;23.33;;;;;;;8.09;100.00;102437.72;5094602;28;20032;-56
2021/12/14 05:32:18;;;;;;;28.17;23.67;;;;;;;8.09;100.00;102441.22;5094435;28;20109;-52
2021/12/14 05:34:46;;;;;;;26.73;23.40;;;;;;;8.09;100.00;102438.59;5094206;28;20032;-52
2021/12/14 05:37:18;;;;;;;30.20;23.80;;;;;;;7.87;100.00;102402.72;5076220;28;20063;-53
2021/12/14 05:39:52;;;;;;;26.95;22.58;;;;;;;8.10;100.00;102423.75;5076249;28;20032;-55
2021/12/14 05:45:12;;;;;;;24.73;22.00;;;;;;;8.11;100.00;102446.50;5094316;28;20563;-56
2021/12/14 05:47:49;;;;;;;27.85;23.33;;;;;;;7.65;100.00;102356.31;5094182;28;20091;-53
2021/12/14 05:50:21;;;;;;;27.95;22.83;;;;;;;8.08;100.00;102447.38;5076273;28;20028;-55
2021/12/14 05:52:46;;;;;;;25.90;23.10;;;;;;;7.92;100.00;102424.56;5094117;28;20028;-51
2021/12/14 05:55:12;;;;;;;25.63;21.73;;;;;;;8.04;100.00;102456.09;5093932;28;20031;-54
2021/12/14 05:57:38;;;;;;;27.20;22.55;;;;;;;7.98;100.00;102456.06;5093844;28;20066;-53
2021/12/14 06:00:06;;;;;;;25.85;22.95;;;;;;;8.02;100.00;102463.09;5093812;28;20036;-58
2021/12/14 06:02:31;;;;;;;28.05;24.15;;;;;;;7.59;100.00;102388.59;5075859;28;20407;-57
2021/12/14 06:04:56;;;;;;;29.77;23.48;;;;;;;7.96;100.00;102449.06;5075764;28;20028;-51
2021/12/14 06:07:23;;;;;;;26.80;23.05;;;;;;;8.04;100.00;102460.44;5093986;28;20032;-52
2021/12/14 06:09:51;;;;;;;28.85;23.70;;;;;;;7.69;100.00;102395.66;5093696;28;20523;-55
2021/12/14 06:12:23;;;;;;;26.73;22.45;;;;;;;8.03;100.00;102464.81;5093604;28;20039;-56
2021/12/14 06:14:54;;;;;;;27.25;23.08;;;;;;;8.02;100.00;102462.19;5093575;28;20498;-51
2021/12/14 06:17:29;;;;;;;26.77;23.10;;;;;;;8.00;100.00;102463.94;5093846;28;20060;-57
2021/12/14 06:19:58;;;;;;;31.02;24.65;;;;;;;7.70;100.00;102407.03;5093437;28;20074;-55
2021/12/14 06:22:24;;;;;;;28.40;22.55;;;;;;;7.97;100.00;102456.91;5093553;28;20111;-54
2021/12/14 06:24:58;;;;;;;26.10;23.00;;;;;;;7.65;100.00;102403.47;5075475;28;20170;-53
2021/12/14 06:27:27;;;;;;;28.55;23.17;;;;;;;7.67;100.00;102407.88;5093323;28;20032;-56
2021/12/14 06:29:55;;;;;;;27.67;23.52;;;;;;;8.03;100.00;102474.41;5093533;28;20044;-53
2021/12/14 06:32:26;;;;;;;28.05;22.75;;;;;;;8.04;100.00;102476.19;5093177;28;20024;-53
2021/12/14 06:34:57;;;;;;;30.73;23.40;;;;;;;7.94;100.00;102451.66;5092924;28;20124;-58
2021/12/14 06:37:53;;;;;;;32.20;23.23;;;;;;;7.66;100.00;102403.50;5092812;28;20052;-60
2021/12/14 06:40:30;;;;;;;29.70;22.65;;;;;;;8.05;100.00;102488.44;5093314;28;20046;-56
2021/12/14 06:43:03;;;;;;;30.55;24.05;;;;;;;8.03;100.00;102470.06;5092675;28;20031;-59
2021/12/14 06:45:38;;;;;;;30.70;24.20;;;;;;;8.01;100.00;102471.81;5093258;28;20032;-55
2021/12/14 06:48:12;;;;;;;31.13;24.25;;;;;;;7.66;100.00;102418.34;5074787;28;20032;-55
2021/12/14 06:50:45;;;;;;;30.17;23.92;;;;;;;7.92;100.00;102475.28;5093129;28;20471;-54
2021/12/14 06:53:14;;;;;;;30.20;24.58;;;;;;;7.97;100.00;102493.63;5092876;28;20116;-52
2021/12/14 06:55:39;;;;;;;33.08;25.45;;;;;;;8.00;100.00;102503.28;5092962;28;20429;-56
2021/12/14 06:58:06;;;;;;;31.05;23.38;;;;;;;7.99;100.00;102498.91;5074859;28;20548;-56
2021/12/14 07:00:31;;;;;;;33.60;25.27;;;;;;;7.97;100.00;102500.66;5092763;28;20028;-55
2021/12/14 07:02:57;;;;;;;31.33;25.80;;;;;;;8.02;100.00;102489.31;5092728;28;20156;-53
2021/12/14 07:05:25;;;;;;;32.95;25.17;;;;;;;7.68;100.00;102432.31;5092809;28;20118;-58
2021/12/14 07:07:51;;;;;;;34.72;25.42;;;;;;;8.03;100.00;102493.66;5073451;28;20044;-56
2021/12/14 07:10:17;;;;;;;30.92;24.50;;;;;;;8.00;100.00;102487.56;5074632;28;20032;-56
2021/12/14 07:12:42;;;;;;;32.00;25.15;;;;;;;7.94;100.00;102485.75;5092699;28;20056;-53
2021/12/14 07:15:11;;;;;;;34.15;26.13;;;;;;;8.06;100.00;102490.16;5092395;28;20071;-57
2021/12/14 07:17:45;;;;;;;35.03;25.92;;;;;;;8.03;100.00;102493.66;5092613;28;20028;-59
2021/12/14 07:20:11;;;;;;;31.35;24.90;;;;;;;8.02;100.00;102502.41;5092570;28;20055;-56
2021/12/14 07:22:46;;;;;;;31.02;25.13;;;;;;;7.61;100.00;102433.19;5092979;28;20467;-60
2021/12/14 07:25:31;;;;;;;32.30;26.08;;;;;;;7.99;100.00;102501.53;5092456;28;20024;-54
2021/12/14 07:28:10;;;;;;;33.85;26.25;;;;;;;7.98;100.00;102499.75;5092170;28;20533;-55
2021/12/14 07:30:53;;;;;;;36.40;26.60;;;;;;;8.01;100.00;102518.13;5074326;28;20059;-52
2021/12/14 07:33:22;;;;;;;33.67;26.45;;;;;;;8.00;100.00;102509.38;5092303;28;20047;-54
2021/12/14 07:35:56;;;;;;;33.92;26.98;;;;;;;8.06;100.00;102532.13;5092367;28;20386;-56
2021/12/14 07:38:30;;;;;;;34.55;26.70;;;;;;;7.74;100.00;102461.19;5092110;28;20044;-54
2021/12/14 07:41:12;;;;;;;39.50;28.33;;;;;;;8.09;100.00;102530.41;5097625;28;20228;-53
2021/12/14 07:43:44;;;;;;;34.80;26.55;;;;;;;8.10;100.00;102532.16;5069361;28;20392;-50
2021/12/14 07:46:20;;;;;;;36.03;26.88;;;;;;;7.73;100.00;102454.22;5069049;28;20115;-53
2021/12/14 07:48:54;;;;;;;35.63;26.85;;;;;;;8.15;100.00;102535.69;5067643;28;20123;-55
2021/12/14 07:51:20;;;;;;;39.45;28.15;;;;;;;8.13;100.00;102510.31;5069148;28;20031;-53
2021/12/14 07:53:59;;;;;;;39.70;28.65;;;;;;;8.05;100.00;102510.31;5070877;28;20025;-54
2021/12/14 07:56:52;;;;;;;38.45;27.45;;;;;;;8.17;100.00;102530.47;5071187;28;20035;-51
2021/12/14 07:59:24;;;;;;;45.22;30.02;;;;;;;7.86;100.00;102482.22;5071818;28;20389;-53
2021/12/14 08:02:06;;;;;;;40.10;29.17;;;;;;;8.14;100.00;102536.56;5071687;28;20559;-57
2021/12/14 08:04:33;;;;;;;41.00;29.67;;;;;;;7.84;100.00;102476.97;5071870;28;20043;-55
2021/12/14 08:06:58;;;;;;;42.72;29.85;;;;;;;8.19;100.00;102539.19;5053770;28;20109;-54
2021/12/14 08:09:51;;;;;;;44.03;30.80;;;;;;;8.19;100.00;102547.94;5053796;28;20057;-55
2021/12/14 08:12:33;;;;;;;42.42;30.40;;;;;;;8.11;100.00;102530.44;5070474;28;20047;-58
2021/12/14 08:15:16;;;;;;;44.03;30.33;;;;;;;7.82;100.00;102493.59;5070772;28;20502;-56
2021/12/14 08:17:43;;;;;;;46.58;31.27;;;;;;;8.21;100.00;102540.06;5070600;28;20493;-52
2021/12/14 08:20:12;;;;;;;42.75;30.73;;;;;;;8.23;100.00;102540.97;5073437;28;20036;-56
2021/12/14 08:22:40;;;;;;;50.15;32.63;;;;;;;8.16;100.00;102524.34;5074493;28;20036;-56
2021/12/14 08:25:08;;;;;;;44.72;31.60;;;;;;;8.18;100.00;102522.56;5056450;28;20123;-57
2021/12/14 08:27:33;;;;;;;43.58;30.38;;;;;;;8.27;100.00;102541.00;5056633;28;20044;-55
2021/12/14 08:30:02;;;;;;;50.75;33.53;;;;;;;7.87;100.00;102474.38;5056622;28;20033;-54
2021/12/14 08:32:34;;;;;;;47.30;33.50;;;;;;;8.02;100.00;102499.78;5074509;28;20056;-57
2021/12/14 08:35:03;;;;;;;47.15;32.38;;;;;;;8.33;100.00;102553.28;5074307;28;20479;-53
2021/12/14 08:37:34;;;;;;;47.05;32.58;;;;;;;8.34;100.00;102571.66;5073932;28;20055;-52
2021/12/14 08:40:14;;;;;;;50.58;33.33;;;;;;;8.00;100.00;102496.25;5056178;28;20090;-54
2021/12/14 08:42:49;;;;;;;47.88;32.13;;;;;;;8.38;100.00;102569.91;5056032;28;20391;-52
2021/12/14 08:45:28;;;;;;;48.17;31.27;;;;;;;8.00;100.00;102500.66;5074107;28;20047;-55
2021/12/14 08:48:02;;;;;;;49.47;32.05;;;;;;;8.37;100.00;102557.69;5073741;28;20036;-54
2021/12/14 08:50:29;;;;;;;50.83;33.42;;;;;;;7.98;100.00;102498.00;5074094;28;20476;-55
2021/12/14 08:52:55;;;;;;;51.80;35.15;;;;;;;8.35;100.00;102568.16;5073967;28;20035;-54
2021/12/14 08:55:22;;;;;;;52.33;35.20;;;;;;;8.38;100.00;102578.66;5073470;28;20029;-53
2021/12/14 08:57:48;;;;;;;53.97;32.65;;;;;;;8.00;100.00;102509.38;5055858;28;20514;-55
2021/12/14 09:00:21;;;;;;;50.72;34.55;;;;;;;8.03;100.00;102504.16;5073878;28;20036;-55
2021/12/14 09:02:49;;;;;;;46.53;33.30;;;;;;;8.41;100.00;102565.56;5073819;28;20036;-54
2021/12/14 09:05:28;;;;;;;46.78;32.72;;;;;;;8.42;100.00;102559.44;5073668;28;20036;-53
2021/12/14 09:07:55;;;;;;;53.55;34.70;;;;;;;7.99;100.00;102475.28;5074026;28;20059;-54
2021/12/14 09:10:23;;;;;;;50.28;34.47;;;;;;;8.35;100.00;102544.53;5074062;28;20032;-51
2021/12/14 09:12:51;;;;;;;50.33;33.85;;;;;;;8.49;100.00;102558.59;5073593;28;20119;-54
2021/12/14 09:15:23;;;;;;;48.25;32.88;;;;;;;8.41;100.00;102535.81;5055732;28;20071;-54
2021/12/14 09:17:49;;;;;;;52.55;33.22;;;;;;;8.39;100.00;102538.44;5073469;28;20035;-50
2021/12/14 09:20:24;;;;;;;45.78;32.60;;;;;;;8.20;100.00;102491.97;5073380;28;20572;-53
2021/12/14 09:22:56;;;;;;;54.83;34.15;;;;;;;8.57;100.00;102563.00;5073780;28;20509;-54
2021/12/14 09:25:26;;;;;;;48.28;32.97;;;;;;;8.65;100.00;102566.50;5073438;28;20931;-56
2021/12/14 09:27:53;;;;;;;53.60;33.37;;;;;;;8.20;100.00;102491.13;5073176;28;20044;-54
2021/12/14 09:30:20;;;;;;;51.72;32.58;;;;;;;8.70;100.00;102565.66;5072643;28;20789;-49
2021/12/14 09:32:46;;;;;;;41.28;31.13;;;;;;;8.75;100.00;102568.31;5072968;28;20025;-54
2021/12/14 09:35:17;;;;;;;44.20;31.92;;;;;;;8.80;100.00;102570.06;5055293;28;20044;-52
2021/12/14 09:37:46;;;;;;;52.42;33.10;;;;;;;8.84;100.00;102568.31;5073003;28;20044;-56
2021/12/14 09:40:16;;;;;;;45.83;31.98;;;;;;;8.82;100.00;102565.69;5055095;28;20045;-57
2021/12/14 09:42:42;;;;;;;42.00;30.40;;;;;;;8.90;100.00;102574.44;5073267;28;20029;-56
2021/12/14 09:45:11;;;;;;;40.13;30.40;;;;;;;8.55;100.00;102501.75;5073160;28;20039;-57
2021/12/14 09:47:37;;;;;;;42.72;30.45;;;;;;;8.99;100.00;102577.09;5055319;28;20028;-55
2021/12/14 09:50:27;;;;;;;38.88;28.77;;;;;;;9.01;100.00;102556.97;5055285;28;20060;-55
2021/12/14 09:52:54;;;;;;;39.30;29.00;;;;;;;8.93;100.00;102545.56;5072744;28;20044;-53
2021/12/14 09:55:23;;;;;;;42.58;29.38;;;;;;;8.66;100.00;102493.03;5055004;28;20039;-53
2021/12/14 09:57:55;;;;;;;43.28;28.90;;;;;;;8.75;100.00;102500.03;5072922;28;20241;-56
2021/12/14 10:00:34;;;;;;;40.00;29.75;;;;;;;9.11;100.00;102555.22;5072940;28;20483;-53
2021/12/14 10:03:02;;;;;;;36.05;26.92;;;;;;;9.16;100.00;102573.63;5072623;28;20028;-52
2021/12/14 10:05:37;;;;;;;38.40;27.63;;;;;;;9.08;100.00;102560.47;5054744;28;20086;-57
2021/12/14 10:08:14;;;;;;;34.13;28.13;;;;;;;8.89;100.00;102524.56;5054695;28;20024;-55
2021/12/14 10:10:43;;;;;;;40.72;28.75;;;;;;;9.21;100.00;102562.25;5072651;28;20028;-58
2021/12/14 10:13:09;;;;;;;34.28;28.02;;;;;;;8.98;100.00;102509.69;5072533;28;20039;-59
2021/12/14 10:15:48;;;;;;;39.63;27.95;;;;;;;9.35;100.00;102575.38;5072501;28;20036;-54
2021/12/14 10:18:26;;;;;;;36.60;27.15;;;;;;;9.16;100.00;102518.47;5054608;28;20047;-57
2021/12/14 10:21:01;;;;;;;39.47;26.73;;;;;;;9.41;100.00;102581.53;5072450;28;20029;-51
2021/12/14 10:23:27;;;;;;;39.08;28.08;;;;;;;8.98;100.00;102500.94;5072623;28;20029;-54
2021/12/14 10:25:54;;;;;;;38.95;27.42;;;;;;;9.00;100.00;102521.06;5054602;28;20035;-51
2021/12/14 10:28:20;;;;;;;38.13;28.48;;;;;;;9.29;100.00;102584.13;5054492;28;20482;-55
2021/12/14 10:30:54;;;;;;;40.70;28.83;;;;;;;9.16;100.00;102555.25;5072209;28;20032;-56
2021/12/14 10:33:20;;;;;;;41.85;29.33;;;;;;;8.82;100.00;102513.16;5072250;28;20028;-56
2021/12/14 10:35:53;;;;;;;42.90;29.30;;;;;;;8.94;100.00;102538.56;5054351;28;20388;-53
2021/12/14 10:38:28;;;;;;;39.05;29.08;;;;;;;8.75;100.00;102507.91;5072334;28;20079;-56
2021/12/14 10:44:00;;;;;;;43.75;29.83;;;;;;;9.07;100.00;102584.13;5072135;28;20085;-57
2021/12/14 10:46:29;;;;;;;46.63;29.85;;;;;;;9.06;100.00;102591.13;5072071;28;20024;-54
2021/12/14 10:48:55;;;;;;;45.25;29.35;;;;;;;8.68;100.00;102504.41;5071904;28;20029;-55
2021/12/14 10:51:27;;;;;;;45.35;29.17;;;;;;;8.69;100.00;102498.28;5072087;28;20040;-55
2021/12/14 10:53:53;;;;;;;43.50;31.10;;;;;;;9.10;100.00;102569.25;5071698;28;20097;-54
2021/12/14 10:56:27;;;;;;;40.33;29.85;;;;;;;9.17;100.00;102576.25;5071613;28;20028;-60
2021/12/14 10:58:55;;;;;;;41.97;30.80;;;;;;;9.20;100.00;102563.09;5071700;28;20609;-54
2021/12/14 11:01:27;;;;;;;40.70;29.27;;;;;;;9.24;100.00;102571.88;5054200;28;20036;-53
2021/12/14 11:03:57;;;;;;;39.05;29.55;;;;;;;9.20;100.00;102554.34;5071911;28;20321;-55
2021/12/14 11:06:28;;;;;;;44.80;29.90;;;;;;;8.89;100.00;102493.06;5071225;28;20032;-57
2021/12/14 11:11:36;;;;;;;39.92;29.25;;;;;;;9.30;100.00;102566.63;5071741;28;20044;-57
2021/12/14 11:14:05;;;;;;;38.63;29.58;;;;;;;9.29;100.00;102552.59;5071252;28;20028;-54
2021/12/14 11:19:42;;;;;;;45.55;29.70;;;;;;;8.94;100.00;102494.81;5071333;28;20051;-51
2021/12/14 11:22:22;;;;;;;42.22;30.02;;;;;;;8.89;100.00;102487.78;5071310;28;20037;-58
2021/12/14 11:24:53;;;;;;;44.80;31.52;;;;;;;8.92;100.00;102496.56;5071353;28;20032;-54
2021/12/14 11:27:24;;;;;;;37.97;29.30;;;;;;;9.20;100.00;102542.09;5071225;28;20032;-54
2021/12/14 11:29:50;;;;;;;;;;;;;;;9.28;100.00;102558.72;5071331;28;20193;-56
2021/12/14 11:32:19;;;;;;;35.65;26.63;;;;;;;9.28;100.00;102552.63;5071470;28;19918;-55
2021/12/14 11:34:45;;;;;;;36.95;27.38;;;;;;;8.97;100.00;102501.81;5070820;28;20446;-55
2021/12/14 11:37:16;;;;;;;40.08;27.35;;;;;;;8.61;100.00;102441.41;5053097;28;20062;-58
2021/12/14 11:39:48;;;;;;;41.93;28.90;;;;;;;8.80;100.00;102472.03;5070939;28;20049;-57
2021/12/14 11:42:19;;;;;;;38.72;27.50;;;;;;;9.24;100.00;102551.75;5070919;28;20032;-52
2021/12/14 11:44:52;;;;;;;38.60;26.50;;;;;;;9.24;100.00;102549.09;5053092;28;20377;-57
2021/12/14 11:49:55;;;;;;;41.88;28.30;;;;;;;9.27;100.00;102554.38;5070886;28;20064;-59
2021/12/14 11:52:42;;;;;;;37.42;27.25;;;;;;;9.29;100.00;102542.09;5070670;28;20060;-58
2021/12/14 11:55:26;;;;;;;40.30;26.88;;;;;;;9.34;100.00;102545.59;5074096;28;20040;-56
2021/12/14 11:58:18;;;;;;;37.97;27.27;;;;;;;9.26;100.00;102520.19;5075109;28;20063;-56
2021/12/14 12:00:52;;;;;;;35.88;25.55;;;;;;;9.33;100.00;102549.13;5075046;28;20048;-57
2021/12/14 12:03:47;;;;;;;35.33;24.98;;;;;;;9.34;100.00;102540.34;5075058;28;20028;-57
2021/12/14 12:09:28;;;;;;;34.05;23.25;;;;;;;9.30;100.00;102540.34;5074935;28;20033;-55
2021/12/14 12:12:07;;;;;;;31.15;23.38;;;;;;;9.03;100.00;102488.66;5074869;28;20090;-56